Time;durP1;ratioP1;P1;durP2;ratioP2;P2;SDS_P1;SDS_P2;PMS_P1;PMS_P2;Temp;Humidity;BMP_temperature;BMP_pressure;BME280_temperature;BME280_humidity;BME280_pressure;Samples;Min_cycle;Max_cycle;Signal;HPM_P1;HPM_P2
2022/01/27 00:01:42;;;;;;;31.50;23.38;;;5.50;99.90;;;;;;5049719;28;20084;-66
2022/01/27 00:04:17;;;;;;;35.17;23.92;;;5.50;99.90;;;;;;5049477;28;20116;-66
2022/01/27 00:06:42;;;;;;;34.08;22.42;;;5.50;99.90;;;;;;5048454;28;20049;-66
2022/01/27 00:09:17;;;;;;;37.63;24.40;;;5.60;99.90;;;;;;5065448;28;20501;-66
2022/01/27 00:11:45;;;;;;;36.58;23.23;;;5.50;99.90;;;;;;5054676;28;20573;-65
2022/01/27 00:14:13;;;;;;;32.78;22.60;;;5.50;99.90;;;;;;5042680;28;20104;-66
2022/01/27 00:16:43;;;;;;;32.47;21.80;;;5.50;99.90;;;;;;5064935;28;20034;-66
2022/01/27 00:19:13;;;;;;;30.27;20.08;;;5.50;99.90;;;;;;5048791;28;20064;-66
2022/01/27 00:21:39;;;;;;;33.67;24.30;;;5.50;99.90;;;;;;5067245;28;20102;-66
2022/01/27 00:24:05;;;;;;;33.05;21.80;;;5.50;99.90;;;;;;5106199;28;20044;-66
2022/01/27 00:26:31;;;;;;;33.33;20.95;;;5.60;99.90;;;;;;5107922;28;20512;-66
2022/01/27 00:28:57;;;;;;;33.53;22.70;;;5.60;99.90;;;;;;5087796;28;20040;-66
2022/01/27 00:31:23;;;;;;;31.20;21.48;;;5.70;99.90;;;;;;5123084;28;20071;-66
2022/01/27 00:33:50;;;;;;;29.40;22.40;;;5.60;99.90;;;;;;5101063;28;20108;-65
2022/01/27 00:36:16;;;;;;;28.63;20.92;;;5.50;99.90;;;;;;5089585;28;20044;-66
2022/01/27 00:38:43;;;;;;;33.42;21.63;;;5.60;99.90;;;;;;5098202;28;20040;-66
2022/01/27 00:41:09;;;;;;;32.45;22.58;;;5.60;99.90;;;;;;5089237;28;20051;-66
2022/01/27 00:43:34;;;;;;;31.73;22.50;;;5.60;99.90;;;;;;5096688;28;20128;-66
2022/01/27 00:46:00;;;;;;;33.63;22.55;;;5.60;99.90;;;;;;5122670;28;20050;-65
2022/01/27 00:48:26;;;;;;;34.72;21.80;;;5.60;99.90;;;;;;5088264;28;20051;-66
2022/01/27 00:50:58;;;;;;;33.50;22.23;;;5.60;99.90;;;;;;5123741;28;20051;-65
2022/01/27 00:53:36;;;;;;;30.80;23.23;;;5.50;99.90;;;;;;5086611;28;20080;-66
2022/01/27 00:56:15;;;;;;;31.85;21.00;;;5.60;99.90;;;;;;5089030;28;20109;-66
2022/01/27 01:01:15;;;;;;;31.45;21.52;;;5.50;99.90;;;;;;5088720;28;20048;-65
2022/01/27 01:03:45;;;;;;;29.95;21.02;;;5.70;99.90;;;;;;5090285;28;20072;-65
2022/01/27 01:06:36;;;;;;;31.25;22.30;;;5.60;99.90;;;;;;5083321;28;20052;-66
2022/01/27 01:16:55;;;;;;;27.77;21.63;;;5.60;99.90;;;;;;5089926;28;20078;-66
2022/01/27 01:19:37;;;;;;;31.70;21.73;;;5.50;99.90;;;;;;5093205;28;20069;-65
2022/01/27 01:35:08;;;;;;;33.13;21.75;;;5.60;99.90;;;;;;5103512;28;20055;-65
2022/01/27 01:37:38;;;;;;;28.05;20.92;;;5.60;99.90;;;;;;5085191;28;20049;-65
2022/01/27 01:40:12;;;;;;;32.78;22.05;;;5.60;99.90;;;;;;5094227;28;20048;-66
2022/01/27 01:42:39;;;;;;;29.42;21.23;;;5.70;99.90;;;;;;5082384;28;20052;-66
2022/01/27 01:45:07;;;;;;;27.23;19.45;;;5.60;99.90;;;;;;5099998;28;20040;-65
2022/01/27 01:47:33;;;;;;;26.90;20.05;;;5.70;99.90;;;;;;5089289;28;20539;-65
2022/01/27 01:49:59;;;;;;;27.02;19.38;;;5.70;99.90;;;;;;5088066;28;20032;-66
2022/01/27 01:52:25;;;;;;;24.98;18.75;;;5.70;99.90;;;;;;5092100;28;20079;-65
2022/01/27 01:54:53;;;;;;;25.92;19.55;;;5.70;99.90;;;;;;5093091;28;20052;-66
2022/01/27 01:57:19;;;;;;;26.60;19.98;;;5.70;99.90;;;;;;5118243;28;20125;-66
2022/01/27 01:59:45;;;;;;;23.30;19.70;;;5.70;99.90;;;;;;5123615;28;20103;-65
2022/01/27 02:02:12;;;;;;;25.75;18.52;;;5.80;99.90;;;;;;5126800;28;20036;-66
2022/01/27 02:04:39;;;;;;;27.20;17.92;;;5.70;99.90;;;;;;5123470;28;20082;-66
2022/01/27 02:07:12;;;;;;;29.73;20.48;;;5.80;99.90;;;;;;5107740;28;20047;-66
2022/01/27 02:10:07;;;;;;;23.67;18.02;;;5.70;99.90;;;;;;5107599;28;20052;-66
2022/01/27 02:18:07;;;;;;;29.92;18.20;;;5.70;99.90;;;;;;5107701;28;20074;-66
2022/01/27 02:20:34;;;;;;;28.60;19.63;;;5.80;99.90;;;;;;5107291;28;20054;-65
2022/01/27 02:23:00;;;;;;;27.05;17.65;;;5.70;99.90;;;;;;5121783;28;20514;-66
2022/01/27 02:25:26;;;;;;;22.92;19.00;;;5.70;99.90;;;;;;5105917;28;20044;-66
2022/01/27 02:27:53;;;;;;;28.38;19.45;;;5.70;99.90;;;;;;5107135;28;20049;-65
2022/01/27 02:30:19;;;;;;;28.92;20.02;;;5.70;99.90;;;;;;5104289;28;20054;-66
2022/01/27 02:32:45;;;;;;;29.08;20.83;;;5.60;99.90;;;;;;5095181;28;20448;-65
2022/01/27 02:35:11;;;;;;;27.50;19.25;;;5.60;99.90;;;;;;5121379;28;20044;-66
2022/01/27 02:37:37;;;;;;;29.25;20.83;;;5.60;99.90;;;;;;5125181;28;20465;-65
2022/01/27 02:40:04;;;;;;;28.15;20.52;;;5.70;99.90;;;;;;5105262;28;20042;-66
2022/01/27 02:42:31;;;;;;;29.98;20.33;;;5.70;99.90;;;;;;5104631;28;20063;-65
2022/01/27 02:45:21;;;;;;;25.73;17.92;;;5.70;99.90;;;;;;5119343;28;20054;-65
2022/01/27 02:47:47;;;;;;;27.02;20.85;;;5.70;99.90;;;;;;5125651;28;20047;-66
2022/01/27 02:50:12;;;;;;;31.08;21.35;;;5.70;99.90;;;;;;5106260;28;20046;-66
2022/01/27 02:52:39;;;;;;;27.85;19.88;;;5.70;99.90;;;;;;5106980;28;20047;-66
2022/01/27 02:55:06;;;;;;;29.98;19.60;;;5.60;99.90;;;;;;5125696;28;20055;-66
2022/01/27 02:57:32;;;;;;;25.80;19.33;;;5.60;99.90;;;;;;5104800;28;20058;-66
2022/01/27 02:59:57;;;;;;;32.22;22.13;;;5.60;99.90;;;;;;5103563;28;20048;-65
2022/01/27 03:02:24;;;;;;;30.33;20.25;;;5.60;99.90;;;;;;5111489;28;20040;-66
2022/01/27 03:04:49;;;;;;;32.83;23.15;;;5.70;99.90;;;;;;5104117;28;20051;-66
2022/01/27 03:07:16;;;;;;;27.90;21.20;;;5.70;99.90;;;;;;5124882;28;20430;-66
2022/01/27 03:09:42;;;;;;;27.85;18.38;;;5.70;99.90;;;;;;5107418;28;20062;-65
2022/01/27 03:12:13;;;;;;;29.23;20.70;;;5.70;99.90;;;;;;5106958;28;20103;-66
2022/01/27 03:14:40;;;;;;;27.58;22.55;;;5.60;99.90;;;;;;5110162;28;20044;-65
2022/01/27 03:17:07;;;;;;;27.88;21.45;;;5.60;99.90;;;;;;5123467;28;20591;-66
2022/01/27 03:19:34;;;;;;;29.70;22.77;;;5.70;99.90;;;;;;5121026;28;20564;-66
2022/01/27 03:22:03;;;;;;;29.52;22.65;;;5.60;99.90;;;;;;5106181;28;20086;-66
2022/01/27 03:24:29;;;;;;;29.10;21.92;;;5.60;99.90;;;;;;5106771;28;20038;-66
2022/01/27 03:26:56;;;;;;;27.65;21.38;;;5.50;99.90;;;;;;5105982;28;20213;-66
2022/01/27 03:29:23;;;;;;;28.77;21.33;;;5.60;99.90;;;;;;5105814;28;20042;-66
2022/01/27 03:31:49;;;;;;;28.73;20.80;;;5.60;99.90;;;;;;5124828;28;20040;-65
2022/01/27 03:34:15;;;;;;;28.20;22.13;;;5.60;99.90;;;;;;5118625;28;20048;-66
2022/01/27 03:36:41;;;;;;;29.13;21.15;;;5.60;99.90;;;;;;5140817;28;20044;-66
2022/01/27 03:39:10;;;;;;;29.15;21.80;;;5.60;99.90;;;;;;5105821;28;20048;-66
2022/01/27 03:41:38;;;;;;;30.47;21.80;;;5.60;99.90;;;;;;5117618;28;20047;-66
2022/01/27 03:44:05;;;;;;;31.55;21.58;;;5.60;99.90;;;;;;5140857;28;20293;-66
2022/01/27 03:46:31;;;;;;;28.67;21.85;;;5.70;99.90;;;;;;5107109;28;20044;-65
2022/01/27 03:48:57;;;;;;;31.00;21.55;;;5.60;99.90;;;;;;5098338;28;20109;-65
2022/01/27 03:51:23;;;;;;;30.48;22.02;;;5.60;99.90;;;;;;5122785;28;20039;-65
2022/01/27 03:53:49;;;;;;;32.97;22.00;;;5.60;99.90;;;;;;5123917;28;20048;-66
2022/01/27 03:56:15;;;;;;;28.10;21.02;;;5.60;99.90;;;;;;5118671;28;20084;-66
2022/01/27 03:58:40;;;;;;;30.95;21.85;;;5.60;99.90;;;;;;5105813;28;20057;-66
2022/01/27 04:01:06;;;;;;;28.15;21.13;;;5.60;99.90;;;;;;5106402;28;20079;-66
2022/01/27 04:03:36;;;;;;;30.23;20.30;;;5.60;99.90;;;;;;5089489;28;20039;-66
2022/01/27 04:06:07;;;;;;;28.73;21.60;;;5.60;99.90;;;;;;5138983;28;20056;-66
2022/01/27 04:08:37;;;;;;;32.20;23.35;;;5.60;99.90;;;;;;5114820;28;20060;-66
2022/01/27 04:11:07;;;;;;;30.10;21.63;;;5.60;99.90;;;;;;5120960;28;20043;-65
2022/01/27 04:13:34;;;;;;;29.65;21.63;;;5.50;99.90;;;;;;5111165;28;20088;-66
2022/01/27 04:16:01;;;;;;;30.63;23.08;;;5.60;99.90;;;;;;5118382;28;20133;-66
2022/01/27 04:18:27;;;;;;;30.25;22.15;;;5.60;99.90;;;;;;5105822;28;20053;-66
2022/01/27 04:20:53;;;;;;;31.23;23.20;;;5.60;99.90;;;;;;5105933;28;20051;-66
2022/01/27 04:23:19;;;;;;;29.73;22.17;;;5.60;99.90;;;;;;5105572;28;20051;-66
2022/01/27 04:25:46;;;;;;;31.45;21.30;;;5.60;99.90;;;;;;5117306;28;20040;-66
2022/01/27 04:28:17;;;;;;;33.70;21.73;;;5.60;99.90;;;;;;5106007;28;20046;-66
2022/01/27 04:30:43;;;;;;;30.38;21.15;;;5.60;99.90;;;;;;5105443;28;20052;-66
2022/01/27 04:33:09;;;;;;;31.02;23.27;;;5.60;99.90;;;;;;5105455;28;20043;-66
2022/01/27 04:35:40;;;;;;;28.73;23.60;;;5.70;99.90;;;;;;5108443;28;20130;-66
2022/01/27 04:41:07;;;;;;;31.45;23.23;;;5.60;99.90;;;;;;5109941;28;20062;-66
2022/01/27 04:43:41;;;;;;;31.48;22.30;;;5.60;99.90;;;;;;5105069;28;20047;-65
2022/01/27 04:49:12;;;;;;;30.48;22.65;;;5.70;99.90;;;;;;5015584;28;20058;-65
2022/01/27 04:51:38;;;;;;;33.72;22.63;;;5.70;99.90;;;;;;5037753;28;20053;-66
2022/01/27 04:54:14;;;;;;;28.67;21.27;;;5.70;99.90;;;;;;5012582;28;20061;-66
2022/01/27 04:56:41;;;;;;;29.73;21.20;;;5.70;99.90;;;;;;5031216;28;20057;-66
2022/01/27 04:59:15;;;;;;;29.10;21.25;;;5.70;99.90;;;;;;5031804;28;20340;-66
2022/01/27 05:01:48;;;;;;;31.45;22.83;;;5.60;99.90;;;;;;5048398;28;20062;-66
2022/01/27 05:04:17;;;;;;;32.33;20.92;;;5.70;99.90;;;;;;5048236;28;20522;-66
2022/01/27 05:06:43;;;;;;;33.58;22.88;;;5.80;99.90;;;;;;5005748;28;20058;-65
2022/01/27 05:09:09;;;;;;;31.27;22.35;;;5.70;99.90;;;;;;5041476;28;20052;-66
2022/01/27 05:11:46;;;;;;;34.65;21.52;;;5.70;99.90;;;;;;5046982;28;20042;-66
2022/01/27 05:14:17;;;;;;;30.15;20.40;;;5.70;99.90;;;;;;5025668;28;20050;-66
2022/01/27 05:16:43;;;;;;;31.33;20.70;;;5.70;99.90;;;;;;5030947;28;20174;-66
2022/01/27 05:19:09;;;;;;;30.60;21.60;;;5.80;99.90;;;;;;5051983;28;20194;-66
2022/01/27 05:21:35;;;;;;;28.08;21.70;;;5.80;99.90;;;;;;5108674;28;20047;-66
2022/01/27 05:24:02;;;;;;;32.13;21.63;;;5.80;99.90;;;;;;5143115;27;20488;-66
2022/01/27 05:26:27;;;;;;;28.42;21.65;;;5.80;99.90;;;;;;5101996;28;20066;-66
2022/01/27 05:28:53;;;;;;;29.58;21.95;;;5.70;99.90;;;;;;5108933;28;20039;-66
2022/01/27 05:31:19;;;;;;;33.80;20.38;;;5.80;99.90;;;;;;5126160;28;20040;-66
2022/01/27 05:33:45;;;;;;;27.73;20.38;;;5.80;99.90;;;;;;5109214;28;20704;-66
2022/01/27 05:36:10;;;;;;;27.92;20.13;;;5.80;99.90;;;;;;5096384;27;20122;-66
2022/01/27 05:38:37;;;;;;;29.75;21.02;;;5.80;99.90;;;;;;5098259;27;20047;-66
2022/01/27 05:41:04;;;;;;;31.85;21.40;;;5.80;99.90;;;;;;5123307;28;20053;-67
2022/01/27 05:43:30;;;;;;;27.42;20.92;;;5.80;99.90;;;;;;5112590;28;20048;-66
2022/01/27 05:45:56;;;;;;;36.00;21.88;;;5.80;99.90;;;;;;5105502;27;20048;-65
2022/01/27 05:48:22;;;;;;;35.05;21.35;;;5.70;99.90;;;;;;5101190;28;20127;-66
2022/01/27 05:50:48;;;;;;;37.67;22.42;;;5.80;99.90;;;;;;5097797;27;20715;-66
2022/01/27 05:53:14;;;;;;;32.60;22.15;;;5.70;99.90;;;;;;5070878;28;20040;-65
2022/01/27 05:55:39;;;;;;;35.92;22.63;;;5.60;99.90;;;;;;5095417;28;20069;-65
2022/01/27 05:58:05;;;;;;;36.30;23.23;;;5.60;99.90;;;;;;5134392;27;20048;-66
2022/01/27 06:00:31;;;;;;;37.85;22.63;;;5.60;99.90;;;;;;5116207;28;20051;-66
2022/01/27 06:02:58;;;;;;;35.45;23.85;;;5.60;99.90;;;;;;5098998;27;20466;-65
2022/01/27 06:05:26;;;;;;;42.90;23.08;;;5.60;99.90;;;;;;5128510;27;20339;-66
2022/01/27 06:07:52;;;;;;;34.35;22.63;;;5.60;99.90;;;;;;5097417;27;20075;-66
2022/01/27 06:10:18;;;;;;;41.33;23.70;;;5.60;99.90;;;;;;5106741;28;20133;-66
2022/01/27 06:12:45;;;;;;;36.10;23.55;;;5.50;99.90;;;;;;5124218;27;20066;-66
2022/01/27 06:15:11;;;;;;;37.55;25.27;;;5.60;99.90;;;;;;5100195;28;20054;-66
2022/01/27 06:17:36;;;;;;;46.45;25.10;;;5.50;99.90;;;;;;5113400;27;20291;-66
2022/01/27 06:20:03;;;;;;;43.42;23.48;;;5.50;99.90;;;;;;5111426;28;20055;-65
2022/01/27 06:22:29;;;;;;;41.58;24.73;;;5.60;99.90;;;;;;5093382;27;20051;-65
2022/01/27 06:24:54;;;;;;;42.45;23.92;;;5.50;99.90;;;;;;5112823;28;20054;-64
2022/01/27 06:27:20;;;;;;;40.38;24.10;;;5.60;99.90;;;;;;5106683;27;20362;-65
2022/01/27 06:29:46;;;;;;;39.80;22.77;;;5.60;99.90;;;;;;5114432;28;20052;-64
2022/01/27 06:32:11;;;;;;;40.65;25.58;;;5.40;99.90;;;;;;5126524;27;20042;-65
2022/01/27 06:34:37;;;;;;;39.55;24.48;;;5.60;99.90;;;;;;5133483;27;20062;-64
2022/01/27 06:37:03;;;;;;;38.75;22.48;;;5.50;99.90;;;;;;5116758;28;20070;-64
2022/01/27 06:39:29;;;;;;;34.38;22.52;;;5.60;99.90;;;;;;5096446;28;20043;-64
2022/01/27 06:41:54;;;;;;;35.28;21.90;;;5.50;99.90;;;;;;5117223;28;20403;-63
2022/01/27 06:44:20;;;;;;;35.25;21.85;;;5.70;99.90;;;;;;5106534;28;20582;-63
2022/01/27 06:46:46;;;;;;;34.90;20.80;;;5.60;99.90;;;;;;5100767;28;20070;-64
2022/01/27 06:49:16;;;;;;;33.70;22.30;;;5.70;99.90;;;;;;5092082;28;20074;-64
2022/01/27 06:51:43;;;;;;;31.25;20.08;;;5.60;99.90;;;;;;5101209;28;20047;-63
2022/01/27 06:54:09;;;;;;;29.92;20.15;;;5.70;99.90;;;;;;5109186;27;20047;-64
2022/01/27 06:56:35;;;;;;;28.77;19.42;;;5.60;99.90;;;;;;5115462;28;20211;-63
2022/01/27 06:59:00;;;;;;;32.20;19.58;;;5.70;99.90;;;;;;5104271;27;20051;-63
2022/01/27 07:01:26;;;;;;;31.25;19.90;;;5.70;99.90;;;;;;5082109;28;20048;-64
2022/01/27 07:03:52;;;;;;;30.98;20.08;;;5.60;99.90;;;;;;5110935;27;20132;-64
2022/01/27 07:06:18;;;;;;;29.58;18.60;;;5.70;99.90;;;;;;5098582;28;20051;-64
2022/01/27 07:08:43;;;;;;;27.65;18.67;;;5.70;99.90;;;;;;5101242;27;20070;-65
2022/01/27 07:11:09;;;;;;;31.38;19.80;;;5.70;99.90;;;;;;5101248;28;20047;-63
2022/01/27 07:13:40;;;;;;;28.83;19.42;;;5.80;99.90;;;;;;5100205;28;20163;-64
2022/01/27 07:16:07;;;;;;;29.13;18.73;;;5.80;99.90;;;;;;5101737;28;20051;-64
2022/01/27 07:18:34;;;;;;;26.50;18.02;;;5.70;99.90;;;;;;5099526;27;20049;-64
2022/01/27 07:21:00;;;;;;;27.73;18.58;;;5.70;99.90;;;;;;5097630;28;20877;-64
2022/01/27 07:23:25;;;;;;;25.15;17.35;;;5.70;99.90;;;;;;5095436;28;20342;-64
2022/01/27 07:25:51;;;;;;;26.70;18.05;;;5.80;99.90;;;;;;5124921;27;20492;-64
2022/01/27 07:28:17;;;;;;;28.10;17.73;;;5.70;99.90;;;;;;5107080;28;20054;-64
2022/01/27 07:30:42;;;;;;;29.92;18.00;;;5.80;99.90;;;;;;5108466;28;20043;-64
2022/01/27 07:33:08;;;;;;;25.77;16.38;;;5.70;99.90;;;;;;5116068;28;20054;-64
2022/01/27 07:35:34;;;;;;;28.23;17.98;;;5.90;99.90;;;;;;5127086;28;20039;-64
2022/01/27 07:37:59;;;;;;;23.20;16.80;;;5.80;99.90;;;;;;5102683;28;20431;-64
2022/01/27 07:40:25;;;;;;;25.80;15.95;;;5.80;99.90;;;;;;5128865;28;20054;-64
2022/01/27 07:42:51;;;;;;;25.23;16.38;;;5.80;99.90;;;;;;5110035;28;20118;-64
2022/01/27 07:45:17;;;;;;;22.73;14.60;;;5.90;99.90;;;;;;5130264;28;20390;-63
2022/01/27 07:47:42;;;;;;;23.08;15.80;;;5.80;99.90;;;;;;5110482;28;20043;-62
2022/01/27 07:50:08;;;;;;;22.92;14.82;;;6.00;99.90;;;;;;5111000;28;20323;-62
2022/01/27 07:52:34;;;;;;;17.17;13.23;;;6.00;99.90;;;;;;5103562;28;20106;-63
2022/01/27 07:54:59;;;;;;;21.65;14.77;;;6.00;99.90;;;;;;5108848;28;20063;-62
2022/01/27 07:57:25;;;;;;;21.67;14.48;;;5.90;99.90;;;;;;5109592;28;20048;-63
2022/01/27 07:59:51;;;;;;;21.77;14.13;;;6.10;99.90;;;;;;5113748;28;20090;-63
2022/01/27 08:02:17;;;;;;;25.45;16.13;;;6.10;99.90;;;;;;5116365;28;20529;-62
2022/01/27 08:04:42;;;;;;;21.67;14.45;;;6.00;99.90;;;;;;5088014;28;20054;-62
2022/01/27 08:07:10;;;;;;;22.55;15.18;;;6.00;99.90;;;;;;5131867;28;20044;-62
2022/01/27 08:09:36;;;;;;;23.27;14.70;;;6.10;99.90;;;;;;5105343;27;20081;-63
2022/01/27 08:12:02;;;;;;;22.80;15.45;;;6.10;99.90;;;;;;5102388;28;20045;-62
2022/01/27 08:14:27;;;;;;;27.55;15.90;;;6.20;99.90;;;;;;5107277;27;20053;-63
2022/01/27 08:16:53;;;;;;;22.80;14.80;;;6.30;99.90;;;;;;5081452;28;20044;-62
2022/01/27 08:19:19;;;;;;;24.30;15.45;;;6.50;99.90;;;;;;5108574;27;20142;-62
2022/01/27 08:21:45;;;;;;;24.50;15.40;;;6.50;99.90;;;;;;5104106;28;20047;-62
2022/01/27 08:24:11;;;;;;;25.23;16.13;;;6.40;99.90;;;;;;5105833;27;20062;-62
2022/01/27 08:26:43;;;;;;;29.75;16.67;;;6.60;99.90;;;;;;5112450;27;20048;-63
2022/01/27 08:31:43;;;;;;;25.42;16.33;;;6.60;99.90;;;;;;5121408;27;20251;-63
2022/01/27 08:34:14;;;;;;;27.33;16.05;;;6.70;99.90;;;;;;5122942;27;20047;-62
2022/01/27 08:36:41;;;;;;;30.15;16.77;;;6.70;99.90;;;;;;5104441;28;20757;-62
2022/01/27 08:39:07;;;;;;;33.00;17.98;;;6.60;99.90;;;;;;5095399;27;20218;-62
2022/01/27 08:41:34;;;;;;;31.13;16.55;;;6.70;99.90;;;;;;5104373;28;20052;-62
2022/01/27 08:43:59;;;;;;;35.38;17.25;;;6.70;99.90;;;;;;5099258;27;20043;-62
2022/01/27 08:46:25;;;;;;;32.38;16.27;;;6.70;99.90;;;;;;5107565;28;20052;-63
2022/01/27 08:48:51;;;;;;;26.55;16.77;;;6.70;99.90;;;;;;5123328;27;20054;-63
2022/01/27 08:51:21;;;;;;;26.02;17.60;;;6.80;99.90;;;;;;5109020;28;20043;-63
2022/01/27 08:53:46;;;;;;;27.60;14.90;;;6.90;99.90;;;;;;5097321;27;20047;-63
2022/01/27 08:56:13;;;;;;;34.00;16.55;;;7.00;99.90;;;;;;5123747;27;20062;-63
2022/01/27 08:58:39;;;;;;;32.72;17.02;;;6.90;99.90;;;;;;5097106;27;20225;-62
2022/01/27 09:01:05;;;;;;;30.63;14.32;;;7.00;99.90;;;;;;5117694;27;20039;-63
2022/01/27 09:03:31;;;;;;;29.65;15.00;;;7.00;99.90;;;;;;5116670;27;20126;-62
2022/01/27 09:05:56;;;;;;;29.60;14.05;;;7.20;99.90;;;;;;5108886;28;20054;-63
2022/01/27 09:08:22;;;;;;;28.30;13.18;;;7.20;99.90;;;;;;5117955;27;20055;-63
2022/01/27 09:10:48;;;;;;;25.95;12.65;;;7.20;99.90;;;;;;5075433;28;20128;-63
2022/01/27 09:13:15;;;;;;;24.25;13.35;;;7.30;99.90;;;;;;5078234;27;20062;-63
2022/01/27 09:15:43;;;;;;;25.25;11.95;;;7.40;99.90;;;;;;5108999;28;20130;-63
2022/01/27 09:18:09;;;;;;;26.15;12.45;;;7.40;99.90;;;;;;5107145;27;20099;-63
2022/01/27 09:20:35;;;;;;;23.30;11.07;;;7.40;99.90;;;;;;5113933;28;20333;-63
2022/01/27 09:23:02;;;;;;;24.50;11.93;;;7.50;99.90;;;;;;5107274;27;20047;-63
2022/01/27 09:25:41;;;;;;;26.08;10.52;;;7.50;99.90;;;;;;5115967;28;20039;-63
2022/01/27 09:28:07;;;;;;;24.85;10.98;;;7.50;99.90;;;;;;5093620;27;20047;-63
2022/01/27 09:30:33;;;;;;;26.20;11.43;;;7.60;99.90;;;;;;5113162;28;20052;-63
2022/01/27 09:32:59;;;;;;;21.85;9.80;;;7.70;99.90;;;;;;5084153;27;20039;-63
2022/01/27 09:35:24;;;;;;;26.67;10.40;;;7.70;99.90;;;;;;5114893;28;20048;-63
2022/01/27 09:37:50;;;;;;;26.27;9.43;;;7.70;99.90;;;;;;5100929;27;20051;-63
2022/01/27 09:40:16;;;;;;;21.60;9.70;;;7.70;99.90;;;;;;5115745;28;20102;-63
2022/01/27 09:42:53;;;;;;;25.02;9.00;;;7.70;99.90;;;;;;5118605;28;20042;-63
2022/01/27 09:45:21;;;;;;;23.98;10.32;;;7.80;99.90;;;;;;5071030;28;20048;-63
2022/01/27 09:48:00;;;;;;;21.45;9.10;;;7.90;99.90;;;;;;5088841;28;20059;-63
2022/01/27 09:50:48;;;;;;;20.40;9.07;;;8.00;99.90;;;;;;5115609;28;21240;-63
2022/01/27 09:53:16;;;;;;;23.60;10.40;;;7.90;99.90;;;;;;5102538;27;20547;-63
2022/01/27 09:55:42;;;;;;;18.42;8.10;;;7.90;99.90;;;;;;5129613;27;20047;-63
2022/01/27 09:58:08;;;;;;;25.75;8.35;;;8.10;99.90;;;;;;5091960;27;20051;-63
2022/01/27 10:00:34;;;;;;;26.15;9.52;;;8.10;99.90;;;;;;5131498;27;20044;-64
2022/01/27 10:03:06;;;;;;;24.63;9.00;;;8.10;99.90;;;;;;5125035;27;20044;-63
2022/01/27 10:05:32;;;;;;;17.70;8.15;;;8.10;99.90;;;;;;5107584;28;20044;-63
2022/01/27 10:08:19;;;;;;;23.35;8.77;;;8.10;99.90;;;;;;5108698;27;20398;-63
2022/01/27 10:10:50;;;;;;;22.55;8.20;;;8.10;99.90;;;;;;5111101;28;20392;-63
2022/01/27 10:13:36;;;;;;;21.30;8.18;;;8.10;99.90;;;;;;5093433;27;20048;-64
2022/01/27 10:16:03;;;;;;;26.30;8.13;;;8.20;99.90;;;;;;5104128;28;20035;-63
2022/01/27 10:18:35;;;;;;;15.85;7.05;;;8.20;99.90;;;;;;5092685;27;20062;-63
2022/01/27 10:21:06;;;;;;;21.90;6.70;;;8.30;99.90;;;;;;5128785;27;20620;-63
2022/01/27 10:23:38;;;;;;;16.00;7.18;;;8.40;99.90;;;;;;5119039;27;20110;-63
2022/01/27 10:26:13;;;;;;;17.00;6.53;;;8.40;99.90;;;;;;5114645;27;20044;-63
2022/01/27 10:28:50;;;;;;;16.30;6.03;;;8.40;99.90;;;;;;5096185;27;20084;-63
2022/01/27 10:31:20;;;;;;;19.40;6.10;;;8.50;99.90;;;;;;5105921;28;20521;-63
2022/01/27 10:34:01;;;;;;;17.45;6.88;;;8.60;99.90;;;;;;5121873;27;20534;-63
2022/01/27 10:36:30;;;;;;;16.30;5.20;;;8.60;99.90;;;;;;5134641;27;20058;-63
2022/01/27 10:38:59;;;;;;;17.50;6.15;;;8.70;99.90;;;;;;5082223;27;20077;-63
2022/01/27 10:41:32;;;;;;;22.13;6.25;;;8.60;99.90;;;;;;5124366;27;20040;-62
2022/01/27 10:44:16;;;;;;;16.15;5.35;;;8.70;99.90;;;;;;5105076;27;20043;-63
2022/01/27 10:47:07;;;;;;;16.77;5.60;;;8.70;99.90;;;;;;5105734;27;20044;-63
2022/01/27 10:49:37;;;;;;;19.67;5.55;;;8.60;99.90;;;;;;5101256;27;20391;-63
2022/01/27 10:52:03;;;;;;;13.00;4.80;;;8.70;99.90;;;;;;5100571;28;20040;-64
2022/01/27 10:54:39;;;;;;;20.20;5.70;;;8.70;99.90;;;;;;5109989;27;20075;-64
2022/01/27 10:57:07;;;;;;;15.30;5.97;;;8.70;99.90;;;;;;5096102;28;20055;-64
2022/01/27 10:59:33;;;;;;;18.95;5.18;;;8.70;99.90;;;;;;5107668;27;20067;-64
2022/01/27 11:02:05;;;;;;;16.85;5.38;;;8.80;99.90;;;;;;5128918;27;20042;-63
2022/01/27 11:04:37;;;;;;;21.45;5.90;;;8.80;99.90;;;;;;5111894;27;20047;-63
2022/01/27 11:07:05;;;;;;;16.23;5.28;;;8.80;99.90;;;;;;5101365;28;20032;-63
2022/01/27 11:09:38;;;;;;;16.67;5.13;;;8.90;99.90;;;;;;5093322;28;20048;-63
2022/01/27 11:12:12;;;;;;;18.27;4.68;;;8.90;99.90;;;;;;5095095;28;20046;-64
2022/01/27 11:14:39;;;;;;;17.23;6.13;;;8.90;99.90;;;;;;5101016;27;20043;-63
2022/01/27 11:17:06;;;;;;;14.85;4.32;;;8.80;99.90;;;;;;5097494;28;20285;-63
2022/01/27 11:27:37;;;;;;;17.30;5.13;;;8.90;99.90;;;;;;5095152;28;20055;-64
2022/01/27 11:30:27;;;;;;;16.55;4.55;;;8.90;99.90;;;;;;5120878;27;20040;-63
2022/01/27 11:33:03;;;;;;;21.95;5.47;;;8.90;99.90;;;;;;5114715;28;20122;-63
2022/01/27 11:35:29;;;;;;;21.00;4.80;;;8.90;99.90;;;;;;5122270;28;20675;-63
2022/01/27 11:37:58;;;;;;;21.85;5.28;;;9.00;99.90;;;;;;5103663;28;20058;-63
2022/01/27 11:40:37;;;;;;;13.98;4.55;;;8.90;99.90;;;;;;5122458;27;20047;-63
2022/01/27 11:43:06;;;;;;;17.40;4.40;;;8.90;99.90;;;;;;5096965;28;20357;-63
2022/01/27 11:45:34;;;;;;;15.82;4.40;;;8.80;99.90;;;;;;5127052;27;20043;-63
2022/01/27 11:48:08;;;;;;;19.63;4.63;;;8.90;99.90;;;;;;5139100;27;20127;-63
2022/01/27 11:50:39;;;;;;;16.67;4.60;;;8.90;99.90;;;;;;5093170;28;20127;-63
2022/01/27 11:53:10;;;;;;;15.57;4.15;;;8.80;99.90;;;;;;5120243;28;20039;-62
2022/01/27 11:55:44;;;;;;;18.45;4.28;;;8.90;99.90;;;;;;5094993;28;20134;-63
2022/01/27 11:58:17;;;;;;;19.50;5.57;;;8.90;99.90;;;;;;5123225;28;20071;-63
2022/01/27 12:01:25;;;;;;;20.83;4.50;;;8.90;99.90;;;;;;5091425;28;20102;-63
2022/01/27 12:04:06;;;;;;;20.05;3.97;;;8.90;99.90;;;;;;5104561;27;20054;-63
2022/01/27 12:06:34;;;;;;;15.80;3.80;;;8.90;99.90;;;;;;5129931;27;20103;-63
2022/01/27 12:09:20;;;;;;;18.05;4.78;;;9.00;99.90;;;;;;5116217;27;20068;-63
2022/01/27 12:11:50;;;;;;;12.88;3.22;;;8.90;99.90;;;;;;5125976;27;20052;-63
2022/01/27 12:14:25;;;;;;;14.98;3.63;;;9.00;99.90;;;;;;5101703;27;20058;-63
2022/01/27 12:17:10;;;;;;;15.65;4.20;;;9.00;99.90;;;;;;5108671;28;20085;-63
2022/01/27 12:19:55;;;;;;;21.33;4.03;;;9.00;99.90;;;;;;5105006;27;20238;-63
2022/01/27 12:22:25;;;;;;;16.77;4.00;;;9.00;99.90;;;;;;5106466;28;20107;-63
2022/01/27 12:24:50;;;;;;;;;;;9.10;99.90;;;;;;5104740;27;20581;-63
2022/01/27 12:27:18;;;;;;;12.80;3.70;;;9.00;99.90;;;;;;5117100;27;19920;-63
2022/01/27 12:29:49;;;;;;;16.65;3.83;;;9.00;99.90;;;;;;5120966;27;20120;-63
2022/01/27 12:32:17;;;;;;;14.85;3.92;;;9.00;99.90;;;;;;5119381;27;20324;-66
2022/01/27 12:34:46;;;;;;;17.90;3.90;;;9.00;99.90;;;;;;5122893;27;20047;-63
2022/01/27 12:37:12;;;;;;;17.98;3.55;;;9.10;99.90;;;;;;5105375;28;20040;-64
2022/01/27 12:39:44;;;;;;;16.45;3.65;;;9.10;99.90;;;;;;5091427;27;20055;-64
2022/01/27 12:42:13;;;;;;;20.35;4.40;;;9.10;99.90;;;;;;5122357;27;20063;-64
2022/01/27 12:44:42;;;;;;;19.15;3.88;;;9.10;99.90;;;;;;5105506;27;20074;-63
2022/01/27 12:47:16;;;;;;;19.02;3.72;;;9.00;99.90;;;;;;5112061;28;20047;-64
2022/01/27 12:49:50;;;;;;;18.13;3.78;;;9.00;99.90;;;;;;5115787;27;20125;-64
2022/01/27 12:52:20;;;;;;;20.65;4.60;;;9.10;99.90;;;;;;5094873;28;20148;-64
2022/01/27 12:54:50;;;;;;;25.95;4.13;;;9.00;99.90;;;;;;5103532;27;20066;-69
2022/01/27 12:57:23;;;;;;;21.80;4.50;;;9.10;99.90;;;;;;5124525;27;20052;-63
2022/01/27 12:59:51;;;;;;;17.67;3.90;;;9.00;99.90;;;;;;5122052;27;20041;-63
2022/01/27 13:02:18;;;;;;;16.45;3.55;;;8.90;99.90;;;;;;5106248;28;20047;-64
2022/01/27 13:04:45;;;;;;;19.13;3.72;;;8.90;99.90;;;;;;5102985;27;20047;-64
2022/01/27 13:07:10;;;;;;;20.27;3.92;;;8.90;99.90;;;;;;5125018;27;20062;-63
2022/01/27 13:09:38;;;;;;;17.42;3.95;;;8.90;99.90;;;;;;5100096;27;20051;-64
2022/01/27 13:12:30;;;;;;;15.43;4.32;;;8.90;99.90;;;;;;5109055;28;20039;-63
2022/01/27 13:15:05;;;;;;;17.17;3.97;;;8.90;99.90;;;;;;5103694;27;20081;-64
2022/01/27 13:20:17;;;;;;;19.80;3.83;;;8.90;99.90;;;;;;5103147;27;20104;-64
2022/01/27 13:22:44;;;;;;;19.45;2.92;;;8.90;99.90;;;;;;5101112;28;20650;-64
2022/01/27 13:25:10;;;;;;;20.02;3.63;;;8.90;99.90;;;;;;5119581;27;20074;-64
2022/01/27 13:27:36;;;;;;;19.30;3.85;;;9.00;99.90;;;;;;5080889;28;20117;-64
2022/01/27 13:30:02;;;;;;;22.33;4.55;;;9.00;99.90;;;;;;5120714;27;20483;-64
2022/01/27 13:32:28;;;;;;;19.23;3.55;;;8.90;99.90;;;;;;5118848;27;20047;-64
2022/01/27 13:34:54;;;;;;;20.27;3.45;;;8.90;99.90;;;;;;5116084;27;20528;-65
2022/01/27 13:37:32;;;;;;;21.83;4.85;;;9.00;99.90;;;;;;5109532;28;20078;-64